TimeCST,TemperatureF,Dew PointF,Humidity,Sea Level PressureIn,VisibilityMPH,Wind Direction,Wind SpeedMPH,Gust SpeedMPH,PrecipitationIn,Events,Conditions,WindDirDegrees,DateUTC
12:53 AM,24.1,21.0,88,29.88,4.0,North,5.8,-,N/A,,Clear,350,2012-12-19 06:53:00
1:53 AM,24.1,21.9,91,29.90,5.0,Calm,Calm,-,N/A,,Clear,0,2012-12-19 07:53:00
2:53 AM,24.1,21.0,88,29.91,5.0,Calm,Calm,-,N/A,,Clear,0,2012-12-19 08:53:00
3:53 AM,21.9,19.0,89,29.94,6.0,SW,3.5,-,N/A,,Scattered Clouds,230,2012-12-19 09:53:00
4:53 AM,24.1,21.0,88,29.95,7.0,Calm,Calm,-,N/A,,Scattered Clouds,0,2012-12-19 10:53:00
5:53 AM,25.0,21.9,88,29.95,8.0,Calm,Calm,-,N/A,,Clear,0,2012-12-19 11:53:00
6:53 AM,23.0,19.9,88,29.95,7.0,East,3.5,-,N/A,,Partly Cloudy,100,2012-12-19 12:53:00
7:53 AM,23.0,19.9,88,29.95,5.0,ENE,3.5,-,N/A,,Clear,70,2012-12-19 13:53:00
8:53 AM,26.1,23.0,88,29.98,5.0,Calm,Calm,-,N/A,,Clear,0,2012-12-19 14:53:00
9:53 AM,30.0,26.1,85,29.99,7.0,Calm,Calm,-,N/A,,Clear,0,2012-12-19 15:53:00
10:53 AM,34.0,28.9,82,30.00,9.0,Calm,Calm,-,N/A,,Clear,0,2012-12-19 16:53:00
11:53 AM,37.0,28.0,70,29.99,10.0,ESE,4.6,-,N/A,,Mostly Cloudy,120,2012-12-19 17:53:00
12:53 PM,39.0,30.0,70,29.96,10.0,NNE,5.8,-,N/A,,Scattered Clouds,30,2012-12-19 18:53:00
1:53 PM,39.0,28.0,65,29.95,10.0,East,6.9,-,N/A,,Overcast,80,2012-12-19 19:53:00
2:53 PM,37.0,30.9,79,29.93,8.0,NNE,10.4,-,N/A,,Overcast,30,2012-12-19 20:53:00
3:53 PM,34.0,28.9,82,29.94,7.0,NNE,12.7,-,N/A,,Mostly Cloudy,20,2012-12-19 21:53:00
4:53 PM,32.0,27.0,82,29.95,10.0,NE,9.2,-,N/A,,Overcast,40,2012-12-19 22:53:00
5:53 PM,30.9,26.1,82,29.99,10.0,NNE,9.2,-,N/A,,Overcast,30,2012-12-19 23:53:00
6:53 PM,32.0,26.1,79,29.99,10.0,NE,11.5,-,N/A,,Overcast,40,2012-12-20 00:53:00
7:53 PM,30.9,21.9,69,29.99,10.0,North,19.6,28.8,N/A,,Overcast,360,2012-12-20 01:53:00
8:25 PM,28.4,23.0,80,29.92,2.0,North,18.4,28.8,0.00,Snow,Light Snow,360,2012-12-20 02:25:00
8:49 PM,26.6,23.0,86,29.90,4.0,North,24.2,32.2,0.00,Snow,Light Snow,10,2012-12-20 02:49:00
8:53 PM,27.0,23.0,85,29.95,5.0,North,20.7,32.2,0.00,Snow,Light Snow,10,2012-12-20 02:53:00
9:53 PM,26.1,21.9,84,29.98,3.0,North,20.7,-,0.00,Snow,Light Snow,360,2012-12-20 03:53:00
9:57 PM,26.6,21.2,80,29.92,2.5,North,18.4,-,0.00,Snow,Light Snow,10,2012-12-20 03:57:00
10:12 PM,26.6,21.2,80,29.91,1.8,North,18.4,-,0.00,Snow,Light Snow,10,2012-12-20 04:12:00
10:36 PM,24.8,19.4,80,29.90,0.8,North,19.6,27.6,0.01,Snow,Light Snow,360,2012-12-20 04:36:00
10:53 PM,24.1,19.9,84,29.95,0.5,North,20.7,-,0.02,Fog-Snow,Snow,360,2012-12-20 04:53:00
11:53 PM,23.0,19.0,85,29.95,0.5,North,20.7,25.3,0.04,Fog-Snow,Snow,360,2012-12-20 05:53:00